sensor_id;sensor_type;location;lat;lon;timestamp;pressure;altitude;pressure_sealevel;temperature;humidity
44144;BME280;68165;51.920;4.492;2023-03-19T00:02:15;67303.34;;;13.06;100.00
44144;BME280;68165;51.920;4.492;2023-03-19T00:04:41;67308.38;;;13.11;100.00
44144;BME280;68165;51.920;4.492;2023-03-19T00:07:06;67310.06;;;13.12;100.00
44144;BME280;68165;51.920;4.492;2023-03-19T00:09:32;67319.81;;;13.16;100.00
44144;BME280;68165;51.920;4.492;2023-03-19T00:11:57;67314.19;;;13.11;100.00
44144;BME280;68165;51.920;4.492;2023-03-19T00:14:23;67318.69;;;13.15;100.00
44144;BME280;68165;51.920;4.492;2023-03-19T00:16:48;67318.84;;;13.18;100.00
44144;BME280;68165;51.920;4.492;2023-03-19T00:19:15;67313.44;;;13.15;100.00
44144;BME280;68165;51.920;4.492;2023-03-19T00:21:40;67319.41;;;13.18;100.00
44144;BME280;68165;51.920;4.492;2023-03-19T00:24:06;67315.66;;;13.17;100.00
44144;BME280;68165;51.920;4.492;2023-03-19T00:26:33;67304.84;;;13.05;100.00
44144;BME280;68165;51.920;4.492;2023-03-19T00:28:59;67301.13;;;13.04;100.00
44144;BME280;68165;51.920;4.492;2023-03-19T00:31:25;67297.41;;;12.96;100.00
44144;BME280;68165;51.920;4.492;2023-03-19T00:33:51;67273.16;;;12.79;100.00
44144;BME280;68165;51.920;4.492;2023-03-19T00:36:17;67273.56;;;12.77;100.00
44144;BME280;68165;51.920;4.492;2023-03-19T00:38:44;67265.91;;;12.72;100.00
44144;BME280;68165;51.920;4.492;2023-03-19T00:41:10;67270.22;;;12.74;100.00
44144;BME280;68165;51.920;4.492;2023-03-19T00:43:36;67256.22;;;12.61;100.00
44144;BME280;68165;51.920;4.492;2023-03-19T00:46:03;67249.69;;;12.57;100.00
44144;BME280;68165;51.920;4.492;2023-03-19T00:48:28;67267.00;;;12.73;100.00
44144;BME280;68165;51.920;4.492;2023-03-19T00:50:54;67272.84;;;12.74;100.00
44144;BME280;68165;51.920;4.492;2023-03-19T00:53:20;67262.94;;;12.67;100.00
44144;BME280;68165;51.920;4.492;2023-03-19T00:55:45;67263.66;;;12.70;100.00
44144;BME280;68165;51.920;4.492;2023-03-19T00:58:12;67268.53;;;12.72;100.00
44144;BME280;68165;51.920;4.492;2023-03-19T01:00:38;67266.47;;;12.73;100.00
44144;BME280;68165;51.920;4.492;2023-03-19T01:03:04;67262.00;;;12.68;100.00
44144;BME280;68165;51.920;4.492;2023-03-19T01:05:30;67269.25;;;12.75;100.00
44144;BME280;68165;51.920;4.492;2023-03-19T01:07:56;67273.97;;;12.75;100.00
44144;BME280;68165;51.920;4.492;2023-03-19T01:10:23;67280.25;;;12.83;100.00
44144;BME280;68165;51.920;4.492;2023-03-19T01:12:49;67273.97;;;12.75;100.00
44144;BME280;68165;51.920;4.492;2023-03-19T01:15:15;67294.78;;;12.96;100.00
44144;BME280;68165;51.920;4.492;2023-03-19T01:17:41;67279.47;;;12.87;100.00
44144;BME280;68165;51.920;4.492;2023-03-19T01:20:08;67300.75;;;12.99;100.00
44144;BME280;68165;51.920;4.492;2023-03-19T01:22:38;67296.06;;;12.99;100.00
44144;BME280;68165;51.920;4.492;2023-03-19T01:25:06;67281.69;;;12.89;100.00
44144;BME280;68165;51.920;4.492;2023-03-19T01:27:32;67277.06;;;12.82;100.00
44144;BME280;68165;51.920;4.492;2023-03-19T01:29:57;67251.38;;;12.59;100.00
44144;BME280;68165;51.920;4.492;2023-03-19T01:32:23;67256.63;;;12.59;100.00
44144;BME280;68165;51.920;4.492;2023-03-19T01:34:48;67245.59;;;12.51;100.00
44144;BME280;68165;51.920;4.492;2023-03-19T01:37:13;67248.03;;;12.56;100.00
44144;BME280;68165;51.920;4.492;2023-03-19T01:39:39;67215.78;;;12.29;100.00
44144;BME280;68165;51.920;4.492;2023-03-19T01:42:05;67227.72;;;12.35;100.00
44144;BME280;68165;51.920;4.492;2023-03-19T01:44:36;67228.84;;;12.36;100.00
44144;BME280;68165;51.920;4.492;2023-03-19T01:47:05;67217.13;;;12.25;100.00
44144;BME280;68165;51.920;4.492;2023-03-19T01:49:33;67212.81;;;12.24;100.00
44144;BME280;68165;51.920;4.492;2023-03-19T01:52:02;67212.66;;;12.21;100.00
44144;BME280;68165;51.920;4.492;2023-03-19T01:54:29;67202.78;;;12.15;100.00
44144;BME280;68165;51.920;4.492;2023-03-19T01:57:06;67205.00;;;12.17;100.00
44144;BME280;68165;51.920;4.492;2023-03-19T01:59:35;67190.47;;;12.04;100.00
44144;BME280;68165;51.920;4.492;2023-03-19T02:02:07;67195.34;;;12.06;100.00
44144;BME280;68165;51.920;4.492;2023-03-19T02:04:35;67194.78;;;12.05;100.00
44144;BME280;68165;51.920;4.492;2023-03-19T02:07:02;67184.88;;;11.99;100.00
44144;BME280;68165;51.920;4.492;2023-03-19T02:09:29;67183.63;;;11.95;100.00
44144;BME280;68165;51.920;4.492;2023-03-19T02:11:56;67181.22;;;11.91;100.00
44144;BME280;68165;51.920;4.492;2023-03-19T02:14:22;67173.72;;;11.89;100.00
44144;BME280;68165;51.920;4.492;2023-03-19T02:16:48;67177.47;;;11.90;100.00
44144;BME280;68165;51.920;4.492;2023-03-19T02:19:20;67177.84;;;11.88;100.00
44144;BME280;68165;51.920;4.492;2023-03-19T02:21:46;67165.91;;;11.81;100.00
44144;BME280;68165;51.920;4.492;2023-03-19T02:24:16;67164.78;;;11.80;100.00
44144;BME280;68165;51.920;4.492;2023-03-19T02:26:44;67165.19;;;11.78;100.00
44144;BME280;68165;51.920;4.492;2023-03-19T02:29:10;67162.38;;;11.76;100.00
44144;BME280;68165;51.920;4.492;2023-03-19T02:31:36;67165.91;;;11.81;100.00
44144;BME280;68165;51.920;4.492;2023-03-19T02:34:04;67164.63;;;11.78;100.00
44144;BME280;68165;51.920;4.492;2023-03-19T02:36:36;67159.75;;;11.76;100.00
44144;BME280;68165;51.920;4.492;2023-03-19T02:39:06;67161.28;;;11.75;100.00
44144;BME280;68165;51.920;4.492;2023-03-19T02:41:33;67161.28;;;11.75;100.00
44144;BME280;68165;51.920;4.492;2023-03-19T02:44:02;67160.53;;;11.72;100.00
44144;BME280;68165;51.920;4.492;2023-03-19T02:46:28;67161.28;;;11.75;100.00
44144;BME280;68165;51.920;4.492;2023-03-19T02:48:55;67170.94;;;11.86;100.00
44144;BME280;68165;51.920;4.492;2023-03-19T02:51:20;67166.31;;;11.79;100.00
44144;BME280;68165;51.920;4.492;2023-03-19T02:53:46;67183.38;;;12.00;100.00
44144;BME280;68165;51.920;4.492;2023-03-19T02:56:11;67184.19;;;11.96;100.00
44144;BME280;68165;51.920;4.492;2023-03-19T02:58:37;67189.94;;;12.03;100.00
44144;BME280;68165;51.920;4.492;2023-03-19T03:01:03;67196.06;;;12.09;100.00
44144;BME280;68165;51.920;4.492;2023-03-19T03:03:29;67187.50;;;11.99;100.00
44144;BME280;68165;51.920;4.492;2023-03-19T03:05:54;67188.63;;;12.00;100.00
44144;BME280;68165;51.920;4.492;2023-03-19T03:08:20;67198.53;;;12.06;100.00
44144;BME280;68165;51.920;4.492;2023-03-19T03:10:45;67181.94;;;11.94;100.00
44144;BME280;68165;51.920;4.492;2023-03-19T03:13:10;67194.94;;;12.08;100.00
44144;BME280;68165;51.920;4.492;2023-03-19T03:15:37;67190.47;;;12.04;100.00
44144;BME280;68165;51.920;4.492;2023-03-19T03:18:03;67200.53;;;12.13;100.00
44144;BME280;68165;51.920;4.492;2023-03-19T03:20:30;67199.09;;;12.07;100.00
44144;BME280;68165;51.920;4.492;2023-03-19T03:22:56;67197.72;;;12.10;100.00
44144;BME280;68165;51.920;4.492;2023-03-19T03:25:22;67199.81;;;12.10;100.00
44144;BME280;68165;51.920;4.492;2023-03-19T03:27:47;67205.41;;;12.15;100.00
44144;BME280;68165;51.920;4.492;2023-03-19T03:30:13;67205.22;;;12.12;100.00
44144;BME280;68165;51.920;4.492;2023-03-19T03:32:40;67201.66;;;12.14;100.00
44144;BME280;68165;51.920;4.492;2023-03-19T03:35:07;67204.66;;;12.12;100.00
44144;BME280;68165;51.920;4.492;2023-03-19T03:37:34;67187.69;;;12.01;100.00
44144;BME280;68165;51.920;4.492;2023-03-19T03:39:59;67199.81;;;12.10;100.00
44144;BME280;68165;51.920;4.492;2023-03-19T03:42:26;67194.78;;;12.05;100.00
44144;BME280;68165;51.920;4.492;2023-03-19T03:44:54;67191.03;;;12.04;100.00
44144;BME280;68165;51.920;4.492;2023-03-19T03:47:20;67189.75;;;12.01;100.00
44144;BME280;68165;51.920;4.492;2023-03-19T03:49:46;67191.81;;;12.00;100.00
44144;BME280;68165;51.920;4.492;2023-03-19T03:52:12;67185.28;;;11.97;100.00
44144;BME280;68165;51.920;4.492;2023-03-19T03:54:38;67182.50;;;11.94;100.00
44144;BME280;68165;51.920;4.492;2023-03-19T03:57:04;67180.25;;;11.92;100.00
44144;BME280;68165;51.920;4.492;2023-03-19T03:59:29;67180.09;;;11.90;100.00
44144;BME280;68165;51.920;4.492;2023-03-19T04:01:56;67166.31;;;11.79;100.00
44144;BME280;68165;51.920;4.492;2023-03-19T04:04:21;67173.97;;;11.84;100.00
44144;BME280;68165;51.920;4.492;2023-03-19T04:06:47;67162.38;;;11.76;100.00
44144;BME280;68165;51.920;4.492;2023-03-19T04:09:12;67158.66;;;11.75;100.00
44144;BME280;68165;51.920;4.492;2023-03-19T04:11:39;67162.56;;;11.78;100.00
44144;BME280;68165;51.920;4.492;2023-03-19T04:14:06;67159.63;;;11.73;100.00
44144;BME280;68165;51.920;4.492;2023-03-19T04:16:33;67155.28;;;11.72;100.00
44144;BME280;68165;51.920;4.492;2023-03-19T04:18:58;67153.97;;;11.75;100.00
44144;BME280;68165;51.920;4.492;2023-03-19T04:21:26;67153.22;;;11.72;100.00
44144;BME280;68165;51.920;4.492;2023-03-19T04:23:52;67148.41;;;11.63;100.00
44144;BME280;68165;51.920;4.492;2023-03-19T04:26:18;67161.84;;;11.75;100.00
44144;BME280;68165;51.920;4.492;2023-03-19T04:28:43;67167.97;;;11.81;100.00
44144;BME280;68165;51.920;4.492;2023-03-19T04:31:09;67167.41;;;11.80;100.00
44144;BME280;68165;51.920;4.492;2023-03-19T04:33:35;67152.47;;;11.69;100.00
44144;BME280;68165;51.920;4.492;2023-03-19T04:36:01;67159.97;;;11.71;100.00
44144;BME280;68165;51.920;4.492;2023-03-19T04:38:27;67157.16;;;11.69;100.00
44144;BME280;68165;51.920;4.492;2023-03-19T04:40:54;67136.31;;;11.55;100.00
44144;BME280;68165;51.920;4.492;2023-03-19T04:43:21;67139.09;;;11.57;100.00
44144;BME280;68165;51.920;4.492;2023-03-19T04:45:46;67153.03;;;11.70;100.00
44144;BME280;68165;51.920;4.492;2023-03-19T04:48:12;67154.00;;;11.68;100.00
44144;BME280;68165;51.920;4.492;2023-03-19T04:50:37;67145.31;;;11.56;100.00
44144;BME280;68165;51.920;4.492;2023-03-19T04:53:03;67130.56;;;11.47;100.00
44144;BME280;68165;51.920;4.492;2023-03-19T04:55:29;67131.25;;;11.50;100.00
44144;BME280;68165;51.920;4.492;2023-03-19T04:57:54;67123.47;;;11.43;100.00
44144;BME280;68165;51.920;4.492;2023-03-19T05:00:20;67123.84;;;11.41;100.00
44144;BME280;68165;51.920;4.492;2023-03-19T05:02:46;67114.53;;;11.35;100.00
44144;BME280;68165;51.920;4.492;2023-03-19T05:05:11;67125.53;;;11.42;100.00
44144;BME280;68165;51.920;4.492;2023-03-19T05:07:38;67118.59;;;11.41;100.00
44144;BME280;68165;51.920;4.492;2023-03-19T05:10:04;67120.09;;;11.40;100.00
44144;BME280;68165;51.920;4.492;2023-03-19T05:12:30;67121.06;;;11.38;100.00
44144;BME280;68165;51.920;4.492;2023-03-19T05:14:56;67126.47;;;11.41;100.00
44144;BME280;68165;51.920;4.492;2023-03-19T05:17:22;67116.59;;;11.34;100.00
44144;BME280;68165;51.920;4.492;2023-03-19T05:19:47;67119.00;;;11.39;100.00
44144;BME280;68165;51.920;4.492;2023-03-19T05:22:13;67116.59;;;11.34;100.00
44144;BME280;68165;51.920;4.492;2023-03-19T05:24:38;67122.16;;;11.39;100.00
44144;BME280;68165;51.920;4.492;2023-03-19T05:27:03;67129.44;;;11.46;100.00
44144;BME280;68165;51.920;4.492;2023-03-19T05:29:29;67125.19;;;11.37;100.00
44144;BME280;68165;51.920;4.492;2023-03-19T05:31:54;67113.97;;;11.34;100.00
44144;BME280;68165;51.920;4.492;2023-03-19T05:34:20;67110.06;;;11.31;100.00
44144;BME280;68165;51.920;4.492;2023-03-19T05:36:46;67113.25;;;11.31;100.00
44144;BME280;68165;51.920;4.492;2023-03-19T05:39:11;67107.13;;;11.26;100.00
44144;BME280;68165;51.920;4.492;2023-03-19T05:41:37;67113.81;;;11.32;100.00
44144;BME280;68165;51.920;4.492;2023-03-19T05:44:02;67128.72;;;11.43;100.00
44144;BME280;68165;51.920;4.492;2023-03-19T05:46:28;67109.34;;;11.28;100.00
44144;BME280;68165;51.920;4.492;2023-03-19T05:48:53;67114.53;;;11.35;100.00
44144;BME280;68165;51.920;4.492;2023-03-19T05:51:18;67107.28;;;11.28;100.00
44144;BME280;68165;51.920;4.492;2023-03-19T05:53:44;67108.56;;;11.32;100.00
44144;BME280;68165;51.920;4.492;2023-03-19T05:56:10;67117.34;;;11.37;100.00
44144;BME280;68165;51.920;4.492;2023-03-19T05:58:36;67105.81;;;11.22;100.00
44144;BME280;68165;51.920;4.492;2023-03-19T06:01:01;67105.81;;;11.22;100.00
44144;BME280;68165;51.920;4.492;2023-03-19T06:03:26;67107.28;;;11.28;100.00
44144;BME280;68165;51.920;4.492;2023-03-19T06:05:52;67104.50;;;11.26;100.00
44144;BME280;68165;51.920;4.492;2023-03-19T06:08:19;67101.13;;;11.23;100.00
44144;BME280;68165;51.920;4.492;2023-03-19T06:10:44;67086.06;;;11.09;100.00
44144;BME280;68165;51.920;4.492;2023-03-19T06:13:11;67097.44;;;11.15;100.00
44144;BME280;68165;51.920;4.492;2023-03-19T06:15:36;67095.56;;;11.18;100.00
44144;BME280;68165;51.920;4.492;2023-03-19T06:18:02;67104.31;;;11.23;100.00
44144;BME280;68165;51.920;4.492;2023-03-19T06:20:28;67110.69;;;11.24;100.00
44144;BME280;68165;51.920;4.492;2023-03-19T06:22:54;67083.28;;;11.07;100.00
44144;BME280;68165;51.920;4.492;2023-03-19T06:25:19;67103.75;;;11.23;100.00
44144;BME280;68165;51.920;4.492;2023-03-19T06:27:46;67111.56;;;11.30;100.00
44144;BME280;68165;51.920;4.492;2023-03-19T06:30:12;67090.53;;;11.13;100.00
44144;BME280;68165;51.920;4.492;2023-03-19T06:32:38;67087.41;;;11.05;100.00
44144;BME280;68165;51.920;4.492;2023-03-19T06:35:04;67103.94;;;11.25;100.00
44144;BME280;68165;51.920;4.492;2023-03-19T06:37:30;67097.22;;;11.19;100.00
44144;BME280;68165;51.920;4.492;2023-03-19T06:39:56;67087.41;;;11.05;100.00
44144;BME280;68165;51.920;4.492;2023-03-19T06:42:22;67091.47;;;11.12;100.00
44144;BME280;68165;51.920;4.492;2023-03-19T06:44:47;67092.59;;;11.13;100.00
44144;BME280;68165;51.920;4.492;2023-03-19T06:47:13;67092.19;;;11.15;100.00
44144;BME280;68165;51.920;4.492;2023-03-19T06:49:39;67105.81;;;11.22;100.00
44144;BME280;68165;51.920;4.492;2023-03-19T06:52:06;67096.69;;;11.19;100.00
44144;BME280;68165;51.920;4.492;2023-03-19T06:54:32;67102.25;;;11.24;100.00
44144;BME280;68165;51.920;4.492;2023-03-19T06:56:58;67112.53;;;11.28;100.00
44144;BME280;68165;51.920;4.492;2023-03-19T06:59:23;67116.59;;;11.34;100.00
44144;BME280;68165;51.920;4.492;2023-03-19T07:01:50;67130.88;;;11.52;100.00
44144;BME280;68165;51.920;4.492;2023-03-19T07:04:16;67138.75;;;11.52;100.00
44144;BME280;68165;51.920;4.492;2023-03-19T07:06:42;67111.19;;;11.32;100.00
44144;BME280;68165;51.920;4.492;2023-03-19T07:09:07;67132.06;;;11.46;100.00
44144;BME280;68165;51.920;4.492;2023-03-19T07:11:32;67141.56;;;11.55;100.00
44144;BME280;68165;51.920;4.492;2023-03-19T07:13:58;67113.59;;;11.36;100.00
44144;BME280;68165;51.920;4.492;2023-03-19T07:16:25;67133.88;;;11.50;100.00
44144;BME280;68165;51.920;4.492;2023-03-19T07:18:50;67125.53;;;11.42;100.00
44144;BME280;68165;51.920;4.492;2023-03-19T07:21:16;67131.66;;;11.48;100.00
44144;BME280;68165;51.920;4.492;2023-03-19T07:23:41;67145.06;;;11.60;100.00
44144;BME280;68165;51.920;4.492;2023-03-19T07:26:06;67141.31;;;11.59;100.00
44144;BME280;68165;51.920;4.492;2023-03-19T07:28:32;67138.94;;;11.55;100.00
44144;BME280;68165;51.920;4.492;2023-03-19T07:30:57;67141.56;;;11.55;100.00
44144;BME280;68165;51.920;4.492;2023-03-19T07:33:23;67149.16;;;11.66;100.00
44144;BME280;68165;51.920;4.492;2023-03-19T07:35:48;67164.06;;;11.77;100.00
44144;BME280;68165;51.920;4.492;2023-03-19T07:38:14;67157.91;;;11.72;100.00
44144;BME280;68165;51.920;4.492;2023-03-19T07:40:40;67142.81;;;11.58;100.00
44144;BME280;68165;51.920;4.492;2023-03-19T07:43:07;67161.09;;;11.72;100.00
44144;BME280;68165;51.920;4.492;2023-03-19T07:45:34;67176.91;;;11.89;100.00
44144;BME280;68165;51.920;4.492;2023-03-19T07:47:59;67184.72;;;11.96;100.00
44144;BME280;68165;51.920;4.492;2023-03-19T07:50:31;67177.47;;;11.90;100.00
44144;BME280;68165;51.920;4.492;2023-03-19T07:52:56;67179.53;;;11.89;100.00
44144;BME280;68165;51.920;4.492;2023-03-19T07:55:23;67163.84;;;11.82;100.00
44144;BME280;68165;51.920;4.492;2023-03-19T07:57:49;67179.16;;;11.91;100.00
44144;BME280;68165;51.920;4.492;2023-03-19T08:00:16;67175.00;;;11.92;100.00
44144;BME280;68165;51.920;4.492;2023-03-19T08:02:42;67188.63;;;12.00;100.00
44144;BME280;68165;51.920;4.492;2023-03-19T08:05:08;67193.66;;;12.04;100.00
44144;BME280;68165;51.920;4.492;2023-03-19T08:07:35;67171.50;;;11.86;100.00
44144;BME280;68165;51.920;4.492;2023-03-19T08:10:02;67186.25;;;11.95;100.00
44144;BME280;68165;51.920;4.492;2023-03-19T08:12:27;67179.88;;;11.94;100.00
44144;BME280;68165;51.920;4.492;2023-03-19T08:14:53;67188.47;;;11.97;100.00
44144;BME280;68165;51.920;4.492;2023-03-19T08:17:19;67186.00;;;12.00;100.00
44144;BME280;68165;51.920;4.492;2023-03-19T08:19:44;67189.03;;;11.98;100.00
44144;BME280;68165;51.920;4.492;2023-03-19T08:22:10;67169.59;;;11.90;100.00
44144;BME280;68165;51.920;4.492;2023-03-19T08:24:36;67179.47;;;11.96;100.00
44144;BME280;68165;51.920;4.492;2023-03-19T08:27:02;67189.03;;;11.98;100.00
44144;BME280;68165;51.920;4.492;2023-03-19T08:29:28;67190.69;;;11.99;100.00
44144;BME280;68165;51.920;4.492;2023-03-19T08:31:54;67175.41;;;11.90;100.00
44144;BME280;68165;51.920;4.492;2023-03-19T08:34:20;67168.72;;;11.84;100.00
44144;BME280;68165;51.920;4.492;2023-03-19T08:36:46;67180.44;;;11.95;100.00
44144;BME280;68165;51.920;4.492;2023-03-19T08:39:12;67179.63;;;11.99;100.00
44144;BME280;68165;51.920;4.492;2023-03-19T08:41:37;67212.81;;;12.24;100.00
44144;BME280;68165;51.920;4.492;2023-03-19T08:44:02;67227.34;;;12.37;100.00
44144;BME280;68165;51.920;4.492;2023-03-19T08:46:28;67234.44;;;12.41;100.00
44144;BME280;68165;51.920;4.492;2023-03-19T08:48:54;67234.06;;;12.43;100.00
44144;BME280;68165;51.920;4.492;2023-03-19T08:51:20;67249.28;;;12.59;100.00
44144;BME280;68165;51.920;4.492;2023-03-19T08:53:46;67262.00;;;12.68;100.00
44144;BME280;68165;51.920;4.492;2023-03-19T08:56:11;67268.69;;;12.75;100.00
44144;BME280;68165;51.920;4.492;2023-03-19T08:58:37;67279.88;;;12.85;100.00
44144;BME280;68165;51.920;4.492;2023-03-19T09:01:09;67286.56;;;12.91;100.00
44144;BME280;68165;51.920;4.492;2023-03-19T09:03:36;67292.72;;;12.96;100.00
44144;BME280;68165;51.920;4.492;2023-03-19T09:06:04;67292.72;;;12.96;100.00
44144;BME280;68165;51.920;4.492;2023-03-19T09:08:30;67305.00;;;13.07;100.00
44144;BME280;68165;51.920;4.492;2023-03-19T09:10:56;67302.22;;;13.05;100.00
44144;BME280;68165;51.920;4.492;2023-03-19T09:13:21;67310.25;;;13.15;100.00
44144;BME280;68165;51.920;4.492;2023-03-19T09:15:48;67316.78;;;13.18;100.00
44144;BME280;68165;51.920;4.492;2023-03-19T09:18:13;67322.34;;;13.23;100.00
44144;BME280;68165;51.920;4.492;2023-03-19T09:20:39;67328.50;;;13.29;100.00
44144;BME280;68165;51.920;4.492;2023-03-19T09:23:05;67331.31;;;13.31;100.00
44144;BME280;68165;51.920;4.492;2023-03-19T09:25:30;67331.31;;;13.31;100.00
44144;BME280;68165;51.920;4.492;2023-03-19T09:27:55;67330.19;;;13.30;100.00
44144;BME280;68165;51.920;4.492;2023-03-19T09:30:21;67335.22;;;13.35;100.00
44144;BME280;68165;51.920;4.492;2023-03-19T09:32:46;67330.50;;;13.35;100.00
44144;BME280;68165;51.920;4.492;2023-03-19T09:35:12;67347.38;;;13.43;100.00
44144;BME280;68165;51.920;4.492;2023-03-19T09:37:37;67339.16;;;13.38;100.00
44144;BME280;68165;51.920;4.492;2023-03-19T09:40:03;67338.41;;;13.35;100.00
44144;BME280;68165;51.920;4.492;2023-03-19T09:45:15;67335.06;;;13.32;100.00
44144;BME280;68165;51.920;4.492;2023-03-19T09:47:41;67329.63;;;13.30;100.00
44144;BME280;68165;51.920;4.492;2023-03-19T09:50:23;67347.38;;;13.43;100.00
44144;BME280;68165;51.920;4.492;2023-03-19T09:53:00;67345.84;;;13.44;100.00
44144;BME280;68165;51.920;4.492;2023-03-19T09:55:43;67354.06;;;13.49;100.00
44144;BME280;68165;51.920;4.492;2023-03-19T09:58:34;67353.50;;;13.49;100.00
44144;BME280;68165;51.920;4.492;2023-03-19T10:00:58;67353.13;;;13.51;100.00
44144;BME280;68165;51.920;4.492;2023-03-19T10:06:25;67334.50;;;13.32;100.00
44144;BME280;68165;51.920;4.492;2023-03-19T10:12:07;67346.19;;;13.49;100.00
44144;BME280;68165;51.920;4.492;2023-03-19T10:17:14;67343.03;;;13.42;100.00
44144;BME280;68165;51.920;4.492;2023-03-19T10:19:47;67341.78;;;13.38;100.00
44144;BME280;68165;51.920;4.492;2023-03-19T10:22:23;67339.84;;;13.41;100.00
44144;BME280;68165;51.920;4.492;2023-03-19T10:24:53;67345.13;;;13.41;100.00
44144;BME280;68165;51.920;4.492;2023-03-19T10:27:22;67335.38;;;13.37;100.00
44144;BME280;68165;51.920;4.492;2023-03-19T10:29:47;67343.47;;;13.40;100.00
44144;BME280;68165;51.920;4.492;2023-03-19T10:34:47;67333.56;;;13.33;100.00
44144;BME280;68165;51.920;4.492;2023-03-19T10:37:17;67343.47;;;13.40;100.00
44144;BME280;68165;51.920;4.492;2023-03-19T10:39:45;67341.94;;;13.41;100.00
44144;BME280;68165;51.920;4.492;2023-03-19T10:42:38;67352.38;;;13.48;100.00
44144;BME280;68165;51.920;4.492;2023-03-19T10:45:13;67338.03;;;13.37;100.00
44144;BME280;68165;51.920;4.492;2023-03-19T10:47:43;67333.56;;;13.33;100.00
44144;BME280;68165;51.920;4.492;2023-03-19T10:50:17;67335.78;;;13.35;100.00
44144;BME280;68165;51.920;4.492;2023-03-19T10:52:45;67336.00;;;13.31;100.00
44144;BME280;68165;51.920;4.492;2023-03-19T10:55:17;67333.56;;;13.33;100.00
44144;BME280;68165;51.920;4.492;2023-03-19T10:57:44;67338.59;;;13.38;100.00
44144;BME280;68165;51.920;4.492;2023-03-19T11:00:18;67346.41;;;13.45;100.00
44144;BME280;68165;51.920;4.492;2023-03-19T11:02:50;67366.75;;;13.59;100.00
44144;BME280;68165;51.920;4.492;2023-03-19T11:08:21;67370.44;;;13.67;100.00
44144;BME280;68165;51.920;4.492;2023-03-19T11:10:45;67373.09;;;13.67;100.00
44144;BME280;68165;51.920;4.492;2023-03-19T11:13:23;67365.56;;;13.65;100.00
44144;BME280;68165;51.920;4.492;2023-03-19T11:15:51;67358.16;;;13.56;100.00
44144;BME280;68165;51.920;4.492;2023-03-19T11:18:21;67360.78;;;13.56;100.00
44144;BME280;68165;51.920;4.492;2023-03-19T11:21:04;67363.75;;;13.61;100.00
44144;BME280;68165;51.920;4.492;2023-03-19T11:23:41;67378.28;;;13.74;100.00
44144;BME280;68165;51.920;4.492;2023-03-19T11:26:06;67388.69;;;13.88;100.00
44144;BME280;68165;51.920;4.492;2023-03-19T11:28:35;67411.84;;;14.04;100.00
44144;BME280;68165;51.920;4.492;2023-03-19T11:34:24;67476.03;;;14.60;100.00
44144;BME280;68165;51.920;4.492;2023-03-19T11:51:51;67466.69;;;14.54;100.00
44144;BME280;68165;51.920;4.492;2023-03-19T11:54:28;67483.16;;;14.64;100.00
44144;BME280;68165;51.920;4.492;2023-03-19T11:57:03;67491.16;;;14.74;100.00
44144;BME280;68165;51.920;4.492;2023-03-19T11:59:41;67500.28;;;14.84;100.00
44144;BME280;68165;51.920;4.492;2023-03-19T12:10:42;67603.19;;;15.75;100.00
44144;BME280;68165;51.920;4.492;2023-03-19T12:35:48;67643.69;;;16.14;97.06
44144;BME280;68165;51.920;4.492;2023-03-19T12:38:34;67665.53;;;16.33;96.28
44144;BME280;68165;51.920;4.492;2023-03-19T12:41:04;67670.59;;;16.38;95.05
44144;BME280;68165;51.920;4.492;2023-03-19T12:44:09;67667.38;;;16.38;95.46
44144;BME280;68165;51.920;4.492;2023-03-19T12:51:42;67610.63;;;15.84;95.34
44144;BME280;68165;51.920;4.492;2023-03-19T12:54:17;67640.31;;;16.11;95.27
44144;BME280;68165;51.920;4.492;2023-03-19T12:57:04;67672.81;;;16.40;94.80
44144;BME280;68165;51.920;4.492;2023-03-19T12:59:58;67678.97;;;16.46;92.67
44144;BME280;68165;51.920;4.492;2023-03-19T13:07:49;67663.88;;;16.32;91.88
44144;BME280;68165;51.920;4.492;2023-03-19T13:10:22;67658.66;;;16.25;92.11
44144;BME280;68165;51.920;4.492;2023-03-19T13:12:50;67661.06;;;16.29;92.15
44144;BME280;68165;51.920;4.492;2023-03-19T13:15:36;67673.94;;;16.41;92.40
44144;BME280;68165;51.920;4.492;2023-03-19T13:18:20;67675.88;;;16.38;92.50
44144;BME280;68165;51.920;4.492;2023-03-19T13:21:05;67680.34;;;16.42;92.06
44144;BME280;68165;51.920;4.492;2023-03-19T13:23:45;67658.81;;;16.27;91.72
44144;BME280;68165;51.920;4.492;2023-03-19T13:26:16;67657.53;;;16.24;91.55
44144;BME280;68165;51.920;4.492;2023-03-19T13:29:01;67664.25;;;16.30;92.09
44144;BME280;68165;51.920;4.492;2023-03-19T13:31:28;67647.78;;;16.20;91.78
44144;BME280;68165;51.920;4.492;2023-03-19T13:34:16;67644.25;;;16.14;92.04
44144;BME280;68165;51.920;4.492;2023-03-19T13:36:46;67637.53;;;16.08;92.30
44144;BME280;68165;51.920;4.492;2023-03-19T13:39:18;67627.28;;;15.97;91.76
44144;BME280;68165;51.920;4.492;2023-03-19T13:46:46;67595.50;;;15.70;92.35
44144;BME280;68165;51.920;4.492;2023-03-19T13:51:44;67594.94;;;15.70;92.82
44144;BME280;68165;51.920;4.492;2023-03-19T14:01:57;67578.28;;;15.57;93.37
44144;BME280;68165;51.920;4.492;2023-03-19T14:04:31;67584.31;;;15.60;94.13
44144;BME280;68165;51.920;4.492;2023-03-19T14:09:41;67579.66;;;15.54;94.72
44144;BME280;68165;51.920;4.492;2023-03-19T14:12:18;67574.19;;;15.51;94.86
44144;BME280;68165;51.920;4.492;2023-03-19T14:17:36;67558.53;;;15.37;95.47
44144;BME280;68165;51.920;4.492;2023-03-19T14:20:23;67554.44;;;15.31;95.93
44144;BME280;68165;51.920;4.492;2023-03-19T14:28:48;67513.94;;;14.92;96.65
44144;BME280;68165;51.920;4.492;2023-03-19T14:31:30;67496.94;;;14.81;96.76
44144;BME280;68165;51.920;4.492;2023-03-19T14:36:26;67475.25;;;14.64;96.64
44144;BME280;68165;51.920;4.492;2023-03-19T14:39:25;67485.75;;;14.71;96.95
44144;BME280;68165;51.920;4.492;2023-03-19T14:44:54;67491.34;;;14.76;96.48